Terminal Aerodrome Forecast
Issued by NWS North Platte, NE

Home | Current Version | Previous Version | Graphics & Text | Print | Product List | Glossary On
Versions: 1 2 3 4 5 6 7 8 9 10 11 12 13 14 15 16
868
FTUS43 KLBF 211124
TAFVTN
TAF
KVTN 211124Z 2112/2212 24004KT P6SM SKC
     FM211600 21010KT P6SM FEW080
     FM220300 17010KT P6SM SKC
     FM220500 19015G23KT P6SM SKC WS020/21045KT
     FM221000 19012KT P6SM SKC=

USA.gov is the U.S. government's official web portal to all federal, state and local government web resources and services.